Time;durP1;ratioP1;P1;durP2;ratioP2;P2;SDS_P1;SDS_P2;PMS_P1;PMS_P2;Temp;Humidity;BMP_temperature;BMP_pressure;BME280_temperature;BME280_humidity;BME280_pressure;Samples;Min_cycle;Max_cycle;Signal;HPM_P1;HPM_P2
2022/04/20 00:00:02;;;;;;;3.80;3.43;;;11.80;59.70;;;;;;5064895;27;20919;-75
2022/04/20 00:02:28;;;;;;;4.40;4.00;;;11.80;59.50;;;;;;5071435;27;20497;-71
2022/04/20 00:04:56;;;;;;;4.50;3.50;;;11.70;59.30;;;;;;5086570;27;20480;-80
2022/04/20 00:07:24;;;;;;;3.97;3.67;;;11.60;59.80;;;;;;5074710;27;20881;-77
2022/04/20 00:09:51;;;;;;;4.03;3.47;;;11.50;59.80;;;;;;5077525;27;20484;-74
2022/04/20 00:12:18;;;;;;;4.07;3.50;;;11.50;59.60;;;;;;5083016;28;20489;-74
2022/04/20 00:14:45;;;;;;;5.10;3.90;;;11.40;59.90;;;;;;5078421;28;20842;-74
2022/04/20 00:17:12;;;;;;;5.57;4.33;;;11.30;60.00;;;;;;5079198;27;20491;-73
2022/04/20 00:19:39;;;;;;;9.03;3.67;;;11.20;60.10;;;;;;5073930;27;20495;-73
2022/04/20 00:22:07;;;;;;;4.53;2.97;;;11.30;60.60;;;;;;5071493;28;20487;-76
2022/04/20 00:24:35;;;;;;;3.33;3.03;;;11.30;60.50;;;;;;5073462;28;20486;-74
2022/04/20 00:27:04;;;;;;;5.40;3.70;;;11.00;59.70;;;;;;5076832;28;20489;-74
2022/04/20 00:29:30;;;;;;;4.20;3.30;;;11.00;59.80;;;;;;5075483;28;20485;-73
2022/04/20 00:31:57;;;;;;;3.80;3.50;;;11.00;59.90;;;;;;5075688;28;20494;-75
2022/04/20 00:34:24;;;;;;;5.10;3.10;;;11.00;59.70;;;;;;5073957;28;20994;-73
2022/04/20 00:36:53;;;;;;;4.80;3.00;;;11.00;59.50;;;;;;5079535;28;21423;-75
2022/04/20 00:39:22;;;;;;;4.53;3.63;;;10.90;59.50;;;;;;5076362;28;20484;-75
2022/04/20 00:41:49;;;;;;;6.30;3.07;;;10.90;59.40;;;;;;5067864;28;20480;-76
2022/04/20 00:44:16;;;;;;;4.60;3.40;;;10.90;59.50;;;;;;5075453;28;20496;-72
2022/04/20 00:46:46;;;;;;;4.50;3.20;;;10.80;59.30;;;;;;5079393;28;20482;-73
2022/04/20 00:49:14;;;;;;;3.63;3.20;;;10.80;59.40;;;;;;5074434;28;20494;-73
2022/04/20 00:51:51;;;;;;;4.93;3.47;;;10.80;59.30;;;;;;5070811;28;20829;-74
2022/04/20 00:54:18;;;;;;;4.33;3.93;;;10.80;59.40;;;;;;5066310;28;20584;-74
2022/04/20 00:56:46;;;;;;;5.30;3.83;;;10.80;59.40;;;;;;5072779;28;20482;-76
2022/04/20 00:59:15;;;;;;;5.03;2.97;;;10.70;59.20;;;;;;5066251;28;20489;-75
2022/04/20 01:01:43;;;;;;;6.83;3.70;;;10.70;59.50;;;;;;5079455;28;20493;-74
2022/04/20 01:04:10;;;;;;;5.53;3.00;;;10.60;59.30;;;;;;5076900;28;20485;-72
2022/04/20 01:06:37;;;;;;;3.43;2.80;;;10.60;59.30;;;;;;5064404;28;20627;-73
2022/04/20 01:09:04;;;;;;;7.73;3.60;;;10.60;59.40;;;;;;5080047;28;20511;-73
2022/04/20 01:11:31;;;;;;;3.67;3.37;;;10.50;59.40;;;;;;5066249;28;20493;-73
2022/04/20 01:13:59;;;;;;;4.93;3.67;;;10.50;59.60;;;;;;5077244;28;20884;-75
2022/04/20 01:16:26;;;;;;;3.20;2.77;;;10.40;59.60;;;;;;5073157;28;20508;-77
2022/04/20 01:18:54;;;;;;;4.83;3.43;;;10.40;59.40;;;;;;5076492;28;20550;-74
2022/04/20 01:21:23;;;;;;;4.30;3.27;;;10.30;59.60;;;;;;5077312;28;20738;-73
2022/04/20 01:23:50;;;;;;;4.73;3.40;;;10.30;59.40;;;;;;5073561;28;20488;-74
2022/04/20 01:26:17;;;;;;;9.10;4.00;;;10.30;59.50;;;;;;5062245;28;20484;-74
2022/04/20 01:28:45;;;;;;;5.53;3.13;;;10.30;59.60;;;;;;5072037;28;20817;-71
2022/04/20 01:31:14;;;;;;;5.70;3.17;;;10.20;59.30;;;;;;5076079;28;20904;-74
2022/04/20 01:33:41;;;;;;;4.60;3.63;;;10.20;60.20;;;;;;5069489;28;20489;-74
2022/04/20 01:36:08;;;;;;;3.80;3.30;;;10.20;60.80;;;;;;5071134;28;20483;-75
2022/04/20 01:38:37;;;;;;;7.70;3.07;;;10.20;61.10;;;;;;5075202;28;20481;-74
2022/04/20 01:41:03;;;;;;;5.30;3.80;;;10.10;61.50;;;;;;5068151;28;20915;-76
2022/04/20 01:43:30;;;;;;;4.10;2.97;;;10.00;62.10;;;;;;5069028;28;20524;-73
2022/04/20 01:45:57;;;;;;;4.33;3.00;;;10.00;62.30;;;;;;5069103;28;20994;-74
2022/04/20 01:48:23;;;;;;;3.40;3.10;;;9.90;63.70;;;;;;5077056;28;20469;-74
2022/04/20 01:53:36;;;;;;;4.13;3.07;;;9.60;63.70;;;;;;5059410;28;20477;-74
2022/04/20 01:56:06;;;;;;;4.17;3.40;;;9.50;64.50;;;;;;5075467;28;20490;-71
2022/04/20 01:58:35;;;;;;;4.40;3.40;;;9.40;64.80;;;;;;5071327;28;20484;-72
2022/04/20 02:02:34;;;;;;;6.43;3.40;;;9.30;65.50;;;;;;5067347;28;21078;-72
2022/04/20 02:03:48;;;;;;;4.47;3.60;;;9.20;65.80;;;;;;5050060;28;20870;-73
2022/04/20 02:06:15;;;;;;;4.00;3.60;;;9.10;66.00;;;;;;5074091;28;20471;-74
2022/04/20 02:08:43;;;;;;;4.00;3.57;;;9.00;65.80;;;;;;5075693;28;20266;-74
2022/04/20 02:11:10;;;;;;;5.30;3.00;;;9.00;65.90;;;;;;5066591;28;20512;-76
2022/04/20 02:13:37;;;;;;;5.17;3.77;;;8.90;67.40;;;;;;5072654;28;20488;-73
2022/04/20 02:16:03;;;;;;;5.50;3.63;;;8.80;66.90;;;;;;5056109;28;20492;-74
2022/04/20 02:18:31;;;;;;;4.30;3.37;;;8.70;66.50;;;;;;5079560;28;20486;-74
2022/04/20 02:20:57;;;;;;;5.33;3.23;;;8.60;66.60;;;;;;5064230;28;20485;-74
2022/04/20 02:23:24;;;;;;;8.60;4.27;;;8.50;67.10;;;;;;5064778;28;20485;-74
2022/04/20 02:25:52;;;;;;;4.13;3.23;;;8.30;66.90;;;;;;5071793;28;20499;-74
2022/04/20 02:28:19;;;;;;;5.50;3.83;;;8.30;66.90;;;;;;5071334;28;21150;-75
2022/04/20 02:30:47;;;;;;;5.73;3.63;;;8.40;67.10;;;;;;5063948;28;20483;-75
2022/04/20 02:33:16;;;;;;;3.87;3.17;;;8.30;68.00;;;;;;5068232;28;20581;-75
2022/04/20 02:35:43;;;;;;;5.73;3.53;;;8.30;67.70;;;;;;5071173;28;20975;-75
2022/04/20 02:38:11;;;;;;;3.43;3.13;;;8.20;67.50;;;;;;5075155;28;20484;-74
2022/04/20 02:40:39;;;;;;;3.43;3.00;;;8.20;68.10;;;;;;5069268;28;20991;-73
2022/04/20 02:43:07;;;;;;;5.17;3.70;;;8.10;68.10;;;;;;5066082;28;20489;-73
2022/04/20 02:45:35;;;;;;;4.80;3.50;;;7.90;67.70;;;;;;5075860;28;20482;-73
2022/04/20 02:48:02;;;;;;;6.70;3.40;;;7.80;68.00;;;;;;5074662;28;20481;-73
2022/04/20 02:50:29;;;;;;;4.37;3.57;;;7.80;68.60;;;;;;5075246;28;20488;-74
2022/04/20 02:52:56;;;;;;;3.90;3.30;;;7.70;69.30;;;;;;5066761;28;20484;-75
2022/04/20 02:55:23;;;;;;;3.23;2.90;;;7.80;68.90;;;;;;5079583;28;20491;-73
2022/04/20 02:57:50;;;;;;;6.30;3.60;;;7.80;68.90;;;;;;5069867;28;20845;-73
2022/04/20 03:00:18;;;;;;;5.63;3.87;;;7.80;69.30;;;;;;5066857;28;21385;-74
2022/04/20 03:02:45;;;;;;;5.30;3.37;;;7.80;70.30;;;;;;5058021;28;20479;-74
2022/04/20 03:05:12;;;;;;;3.67;3.27;;;7.80;69.80;;;;;;5071235;28;20484;-74
2022/04/20 03:07:39;;;;;;;4.10;3.07;;;7.80;69.70;;;;;;5047642;28;20872;-74
2022/04/20 03:10:06;;;;;;;3.87;3.50;;;7.80;69.20;;;;;;5061707;28;20495;-75
2022/04/20 03:12:34;;;;;;;6.03;3.50;;;7.70;68.90;;;;;;5049892;28;20477;-73
2022/04/20 03:15:01;;;;;;;5.17;3.33;;;7.60;68.80;;;;;;5075917;28;20518;-74
2022/04/20 03:17:29;;;;;;;6.00;3.80;;;7.60;68.80;;;;;;5035022;28;21059;-74
2022/04/20 03:19:55;;;;;;;5.60;3.23;;;7.60;69.00;;;;;;5039494;28;20515;-73
2022/04/20 03:22:22;;;;;;;4.70;3.83;;;7.60;69.60;;;;;;5071391;28;20483;-72
2022/04/20 03:24:49;;;;;;;4.57;3.93;;;7.60;69.90;;;;;;5077464;28;20568;-74
2022/04/20 03:27:16;;;;;;;7.70;5.60;;;7.60;69.80;;;;;;5074408;28;20489;-73
2022/04/20 03:29:42;;;;;;;6.53;3.87;;;7.60;69.90;;;;;;5055832;28;20889;-74
2022/04/20 03:32:11;;;;;;;5.00;3.53;;;7.60;69.80;;;;;;5056877;28;21442;-75
2022/04/20 03:34:39;;;;;;;7.93;3.80;;;7.60;70.10;;;;;;5072802;28;21276;-76
2022/04/20 03:37:06;;;;;;;13.57;3.30;;;7.50;70.40;;;;;;5072737;28;20487;-75
2022/04/20 03:39:33;;;;;;;5.67;4.37;;;7.40;71.30;;;;;;5052819;28;20483;-73
2022/04/20 03:42:00;;;;;;;5.67;3.77;;;7.30;71.60;;;;;;5070236;28;20477;-74
2022/04/20 03:44:27;;;;;;;3.37;3.07;;;7.20;71.80;;;;;;5065192;28;20483;-72
2022/04/20 03:46:54;;;;;;;5.13;3.50;;;7.20;72.10;;;;;;5080556;28;20968;-74
2022/04/20 03:49:21;;;;;;;4.40;3.90;;;7.10;72.10;;;;;;5041025;28;20495;-73
2022/04/20 03:51:49;;;;;;;4.03;3.67;;;7.10;71.60;;;;;;5063625;28;20487;-74
2022/04/20 03:54:16;;;;;;;5.23;4.00;;;7.10;71.30;;;;;;5072204;28;20480;-73
2022/04/20 03:59:29;;;;;;;6.77;4.13;;;7.00;70.90;;;;;;5033659;28;21063;-73
2022/04/20 04:01:55;;;;;;;3.93;3.53;;;7.00;71.60;;;;;;5071007;28;21210;-73
2022/04/20 04:04:22;;;;;;;5.87;3.60;;;7.00;71.80;;;;;;5059861;28;20895;-74
2022/04/20 04:06:50;;;;;;;3.30;3.00;;;6.90;71.80;;;;;;5040011;27;21002;-74
2022/04/20 04:09:18;;;;;;;3.80;3.10;;;6.80;71.60;;;;;;5071981;28;20492;-74
2022/04/20 04:11:45;;;;;;;4.00;3.37;;;6.80;72.00;;;;;;5067649;28;20487;-74
2022/04/20 04:14:12;;;;;;;3.60;3.30;;;6.80;72.10;;;;;;5058448;28;20493;-73
2022/04/20 04:16:39;;;;;;;4.63;3.77;;;6.80;72.20;;;;;;5072786;28;20471;-73
2022/04/20 04:19:08;;;;;;;4.63;3.83;;;6.80;72.10;;;;;;5054206;28;20518;-73
2022/04/20 04:21:37;;;;;;;6.70;3.70;;;6.90;72.40;;;;;;5078941;28;20815;-73
2022/04/20 04:24:07;;;;;;;5.87;3.90;;;6.90;72.10;;;;;;5064249;27;20512;-74
2022/04/20 04:26:34;;;;;;;4.43;4.03;;;6.80;72.40;;;;;;5062940;28;20480;-74
2022/04/20 04:29:01;;;;;;;7.30;4.70;;;6.90;72.70;;;;;;5056402;28;20479;-74
2022/04/20 04:31:29;;;;;;;6.10;4.60;;;6.80;72.60;;;;;;5065239;28;20479;-74
2022/04/20 04:33:57;;;;;;;3.93;3.10;;;6.80;72.40;;;;;;5060723;28;20488;-75
2022/04/20 04:36:24;;;;;;;4.10;3.67;;;6.80;72.70;;;;;;5094629;28;20475;-74
2022/04/20 04:38:50;;;;;;;4.20;3.50;;;6.80;72.70;;;;;;5072594;28;20479;-76
2022/04/20 04:41:18;;;;;;;3.50;3.20;;;6.70;72.50;;;;;;5050635;28;20886;-75
2022/04/20 04:43:45;;;;;;;8.03;4.00;;;6.80;72.90;;;;;;5064098;28;20484;-75
2022/04/20 04:48:57;;;;;;;10.50;4.20;;;6.80;73.30;;;;;;5070244;28;21023;-77
2022/04/20 04:51:23;;;;;;;6.17;3.90;;;6.80;73.60;;;;;;5067675;28;21042;-76
2022/04/20 04:53:50;;;;;;;5.37;4.03;;;6.80;73.70;;;;;;5076472;28;21231;-76
2022/04/20 04:56:18;;;;;;;4.53;4.13;;;6.80;73.70;;;;;;5070962;28;20471;-75
2022/04/20 04:58:45;;;;;;;5.13;4.70;;;6.80;74.60;;;;;;5077608;28;20482;-76
2022/04/20 05:01:12;;;;;;;5.97;4.70;;;6.90;73.90;;;;;;5069532;28;20491;-76
2022/04/20 05:03:38;;;;;;;43.63;21.07;;;7.00;73.60;;;;;;5079192;28;20987;-76
2022/04/20 05:06:05;;;;;;;7.43;5.00;;;7.00;73.60;;;;;;5076095;28;20489;-77
2022/04/20 05:08:32;;;;;;;7.37;4.30;;;7.10;74.00;;;;;;5072794;28;20500;-75
2022/04/20 05:10:58;;;;;;;8.70;4.37;;;7.10;73.50;;;;;;5071595;28;20485;-75
2022/04/20 05:13:26;;;;;;;5.60;4.97;;;7.30;73.30;;;;;;5071915;28;20479;-76
2022/04/20 05:15:53;;;;;;;6.90;4.53;;;7.30;73.30;;;;;;5072619;28;20495;-76
2022/04/20 05:18:20;;;;;;;6.50;3.67;;;7.40;73.20;;;;;;5073293;28;20519;-75
2022/04/20 05:20:46;;;;;;;6.53;4.70;;;7.50;72.90;;;;;;5071816;28;20479;-76
2022/04/20 05:23:13;;;;;;;5.53;4.20;;;7.60;73.00;;;;;;5079475;28;20487;-76
2022/04/20 05:25:40;;;;;;;7.37;3.90;;;7.70;73.60;;;;;;5071180;28;21056;-77
2022/04/20 05:28:07;;;;;;;5.70;5.00;;;7.90;73.40;;;;;;5073657;28;20761;-73
2022/04/20 05:30:36;;;;;;;4.73;4.33;;;7.90;72.90;;;;;;5074450;28;20479;-78
2022/04/20 05:33:03;;;;;;;5.73;4.60;;;8.10;73.10;;;;;;5068448;28;20496;-77
2022/04/20 05:35:30;;;;;;;5.27;4.77;;;8.20;72.80;;;;;;5082713;28;20476;-75
2022/04/20 05:43:27;;;;;;;5.67;4.13;;;8.70;71.60;;;;;;5063083;28;20474;-74
2022/04/20 05:45:56;;;;;;;9.60;3.93;;;9.00;71.70;;;;;;5081543;28;20480;-76
2022/04/20 05:48:23;;;;;;;4.57;4.10;;;9.20;71.10;;;;;;5071327;28;20461;-74
2022/04/20 05:50:49;;;;;;;5.60;4.10;;;9.40;70.10;;;;;;5070645;28;20488;-77
2022/04/20 05:53:16;;;;;;;6.00;4.60;;;9.60;70.40;;;;;;5074199;28;20505;-76
2022/04/20 05:55:44;;;;;;;5.13;4.10;;;9.80;70.40;;;;;;5076601;28;21025;-76
2022/04/20 05:58:11;;;;;;;6.10;4.00;;;10.00;68.60;;;;;;5064740;28;20488;-75
2022/04/20 06:00:37;;;;;;;5.30;4.07;;;10.20;68.00;;;;;;5063231;28;20492;-76
2022/04/20 06:03:07;;;;;;;6.40;3.90;;;10.40;67.90;;;;;;5069534;28;20486;-77
2022/04/20 06:05:33;;;;;;;4.53;4.03;;;10.50;67.20;;;;;;5077244;28;20723;-76
2022/04/20 06:08:00;;;;;;;4.37;3.97;;;10.70;68.10;;;;;;5073055;28;20510;-79
2022/04/20 06:10:29;;;;;;;7.10;4.00;;;10.90;67.80;;;;;;5072692;28;20474;-77
2022/04/20 06:12:55;;;;;;;3.83;3.43;;;11.00;67.30;;;;;;5070586;28;21023;-77
2022/04/20 06:15:22;;;;;;;5.43;4.00;;;11.10;66.80;;;;;;5061351;28;20491;-78
2022/04/20 06:17:49;;;;;;;5.47;4.10;;;11.20;66.30;;;;;;5074788;28;20482;-76
2022/04/20 06:20:17;;;;;;;5.87;4.87;;;11.10;65.10;;;;;;5067974;28;20482;-76
2022/04/20 06:22:44;;;;;;;4.80;4.30;;;11.10;65.60;;;;;;5063568;28;20481;-76
2022/04/20 06:25:11;;;;;;;4.20;3.83;;;11.00;65.90;;;;;;5064525;28;20508;-76
2022/04/20 06:27:38;;;;;;;8.87;4.53;;;10.90;66.20;;;;;;5089282;28;20795;-77
2022/04/20 06:30:07;;;;;;;4.20;3.80;;;11.00;65.20;;;;;;5071960;28;20491;-77
2022/04/20 06:32:36;;;;;;;5.97;3.73;;;11.10;65.60;;;;;;5071876;28;20468;-78
2022/04/20 06:35:04;;;;;;;4.87;3.93;;;11.20;65.40;;;;;;5069430;28;20488;-75
2022/04/20 06:37:33;;;;;;;6.30;4.67;;;11.30;65.20;;;;;;5056377;28;21011;-74
2022/04/20 06:40:00;;;;;;;4.93;3.90;;;11.50;65.30;;;;;;5071059;28;20483;-75
2022/04/20 06:42:28;;;;;;;6.43;4.13;;;11.70;65.60;;;;;;5072233;28;20481;-78
2022/04/20 06:44:54;;;;;;;4.37;3.97;;;12.00;66.30;;;;;;5075662;28;20484;-78
2022/04/20 06:47:22;;;;;;;4.97;4.00;;;12.40;64.80;;;;;;5093008;28;20476;-74
2022/04/20 06:49:50;;;;;;;5.47;4.90;;;12.70;65.30;;;;;;5073170;28;20479;-78
2022/04/20 07:00:33;;;;;;;4.30;3.90;;;13.80;61.90;;;;;;5074554;28;21361;-78
2022/04/20 07:03:01;;;;;;;4.10;3.80;;;14.00;61.90;;;;;;5070290;28;20480;-79
2022/04/20 07:05:28;;;;;;;4.50;4.07;;;14.20;61.00;;;;;;5066291;28;20487;-80
2022/04/20 07:07:55;;;;;;;4.63;3.27;;;14.20;60.90;;;;;;5068458;28;20489;-78
2022/04/20 07:10:23;;;;;;;4.03;3.33;;;14.30;59.20;;;;;;5071988;28;20537;-74
2022/04/20 07:12:51;;;;;;;6.17;4.20;;;14.30;59.50;;;;;;5074053;28;20554;-77
2022/04/20 07:15:18;;;;;;;4.70;4.30;;;14.30;60.50;;;;;;5068962;28;20499;-80
2022/04/20 07:17:45;;;;;;;8.83;4.57;;;14.40;60.30;;;;;;5076642;28;20926;-78
2022/04/20 07:20:17;;;;;;;3.70;3.40;;;14.50;59.20;;;;;;5064721;28;20485;-77
2022/04/20 07:22:44;;;;;;;10.73;5.03;;;14.60;57.40;;;;;;5064879;28;20488;-75
2022/04/20 07:25:11;;;;;;;5.10;3.93;;;14.80;58.20;;;;;;5069402;28;20562;-79
2022/04/20 07:27:39;;;;;;;6.63;4.20;;;14.90;57.70;;;;;;5060877;28;21247;-75
2022/04/20 07:30:07;;;;;;;4.73;3.40;;;15.20;56.60;;;;;;5065425;28;21083;-75
2022/04/20 07:32:37;;;;;;;10.80;5.70;;;15.20;55.20;;;;;;5070904;28;20471;-81
2022/04/20 07:35:04;;;;;;;3.60;2.70;;;15.30;55.30;;;;;;5076124;28;20479;-81
2022/04/20 07:37:32;;;;;;;6.00;2.80;;;15.30;53.90;;;;;;5060094;28;20929;-73
2022/04/20 07:39:59;;;;;;;3.20;2.90;;;15.50;55.80;;;;;;5067341;28;21089;-80
2022/04/20 07:42:25;;;;;;;3.33;2.57;;;15.60;54.40;;;;;;5068885;28;20487;-79
2022/04/20 07:44:56;;;;;;;2.93;2.63;;;15.50;52.30;;;;;;5071018;28;20492;-78
2022/04/20 07:47:24;;;;;;;5.90;3.20;;;15.40;53.30;;;;;;5067629;28;20480;-85
2022/04/20 07:52:42;;;;;;;2.90;2.70;;;15.30;54.30;;;;;;5067546;28;20483;-79
2022/04/20 07:55:10;;;;;;;4.23;2.90;;;15.50;57.10;;;;;;5066327;28;20480;-82
2022/04/20 07:57:37;;;;;;;4.73;2.70;;;15.60;54.80;;;;;;5069885;28;20472;-77
2022/04/20 08:00:07;;;;;;;6.63;3.03;;;15.70;53.00;;;;;;5063863;28;20477;-75
2022/04/20 08:02:33;;;;;;;2.90;2.60;;;15.80;53.80;;;;;;5068140;28;20479;-76
2022/04/20 08:05:00;;;;;;;3.70;2.63;;;15.80;54.10;;;;;;5070964;28;20844;-78
2022/04/20 08:07:27;;;;;;;4.03;3.10;;;15.90;54.50;;;;;;5068646;28;20475;-79
2022/04/20 08:09:54;;;;;;;5.50;2.70;;;16.10;55.80;;;;;;5062956;28;20567;-77
2022/04/20 08:12:20;;;;;;;5.07;3.50;;;15.80;50.20;;;;;;5061014;28;20931;-77
2022/04/20 08:14:48;;;;;;;5.23;3.20;;;15.80;53.10;;;;;;5073852;28;20477;-82
2022/04/20 08:17:16;;;;;;;8.80;3.50;;;15.90;53.50;;;;;;5079946;28;20482;-77
2022/04/20 08:19:44;;;;;;;5.90;3.07;;;15.80;52.10;;;;;;5061838;28;20489;-75
2022/04/20 08:22:13;;;;;;;4.30;2.90;;;15.80;52.50;;;;;;5068313;28;20653;-75
2022/04/20 08:24:43;;;;;;;4.37;3.00;;;15.90;53.60;;;;;;5069498;28;20581;-75
2022/04/20 08:27:12;;;;;;;4.40;2.80;;;15.80;54.10;;;;;;5064633;28;20486;-78
2022/04/20 08:29:38;;;;;;;3.07;2.77;;;16.00;53.10;;;;;;5071680;28;20852;-78
2022/04/20 08:32:06;;;;;;;3.33;2.67;;;16.10;51.10;;;;;;5070477;28;20484;-81
2022/04/20 08:34:34;;;;;;;6.93;3.03;;;16.10;51.00;;;;;;5068436;28;20482;-79
2022/04/20 08:37:01;;;;;;;5.13;3.30;;;16.20;52.00;;;;;;5068257;28;20941;-77
2022/04/20 08:39:28;;;;;;;2.83;2.60;;;16.50;52.60;;;;;;5076585;28;20923;-78
2022/04/20 08:41:57;;;;;;;3.73;2.97;;;16.60;52.20;;;;;;5067684;28;20541;-80
2022/04/20 08:44:29;;;;;;;3.37;3.07;;;16.50;50.70;;;;;;5070146;28;20477;-78
2022/04/20 08:47:01;;;;;;;3.97;3.00;;;16.60;51.60;;;;;;5072379;28;20483;-78
2022/04/20 08:49:27;;;;;;;6.10;3.10;;;16.80;53.10;;;;;;5070854;28;21006;-78
2022/04/20 08:54:41;;;;;;;3.30;2.93;;;17.20;53.70;;;;;;5070060;28;20477;-80
2022/04/20 08:57:19;;;;;;;4.43;3.10;;;17.30;52.40;;;;;;5058066;28;20868;-82
2022/04/20 08:59:48;;;;;;;3.73;3.20;;;17.30;51.50;;;;;;5064000;28;20484;-80
2022/04/20 09:02:16;;;;;;;3.13;2.83;;;17.30;50.50;;;;;;5026926;28;20494;-76
2022/04/20 09:04:43;;;;;;;6.57;3.37;;;17.40;51.90;;;;;;5056833;28;20482;-80
2022/04/20 09:07:14;;;;;;;3.50;3.20;;;17.40;51.90;;;;;;5071051;28;20464;-75
2022/04/20 09:09:42;;;;;;;3.77;2.77;;;17.20;50.70;;;;;;5066543;28;20465;-86
2022/04/20 09:12:11;;;;;;;4.47;3.10;;;17.00;49.60;;;;;;5069639;28;20478;-77
2022/04/20 09:14:40;;;;;;;4.53;2.77;;;17.10;51.50;;;;;;5068214;28;21053;-78
2022/04/20 09:17:12;;;;;;;3.40;3.07;;;17.00;50.70;;;;;;5070740;28;20478;-77
2022/04/20 09:19:40;;;;;;;3.50;2.30;;;16.80;51.40;;;;;;5059697;28;21227;-80
2022/04/20 09:22:22;;;;;;;4.10;3.60;;;16.50;51.90;;;;;;5061197;28;20737;-75
2022/04/20 09:25:08;;;;;;;5.40;3.13;;;16.40;51.00;;;;;;5068060;28;20485;-77
2022/04/20 09:27:36;;;;;;;3.50;2.90;;;16.40;50.30;;;;;;5069048;28;20724;-80
2022/04/20 09:30:07;;;;;;;7.93;3.80;;;16.30;51.50;;;;;;5063965;28;20497;-80
2022/04/20 09:32:37;;;;;;;3.00;2.70;;;16.40;53.70;;;;;;5067090;28;20478;-81
2022/04/20 09:35:07;;;;;;;2.80;2.50;;;16.50;52.90;;;;;;5066508;28;20531;-74
2022/04/20 09:37:37;;;;;;;11.60;4.00;;;16.50;51.20;;;;;;5058385;28;20481;-75
2022/04/20 09:40:06;;;;;;;5.23;3.50;;;16.50;51.40;;;;;;5069711;28;20501;-81
2022/04/20 09:42:35;;;;;;;8.27;3.37;;;16.40;50.00;;;;;;5063181;28;20547;-76
2022/04/20 09:45:04;;;;;;;9.50;3.47;;;16.40;51.60;;;;;;5057820;28;20482;-76
2022/04/20 09:50:22;;;;;;;5.40;2.80;;;16.30;50.90;;;;;;5059476;28;20500;-75
2022/04/20 09:52:54;;;;;;;4.00;3.60;;;16.30;51.50;;;;;;5074332;28;20474;-76
2022/04/20 09:55:33;;;;;;;4.23;3.73;;;16.30;53.10;;;;;;5066920;28;20837;-77
2022/04/20 09:58:13;;;;;;;5.67;3.40;;;16.30;51.50;;;;;;5057233;28;20982;-78
2022/04/20 10:00:42;;;;;;;3.43;3.10;;;16.30;50.10;;;;;;5065476;28;20483;-75
2022/04/20 10:03:09;;;;;;;6.00;4.10;;;16.20;50.40;;;;;;5068634;28;21044;-77
2022/04/20 10:05:37;;;;;;;5.30;4.13;;;16.30;52.80;;;;;;5066216;28;20475;-75
2022/04/20 10:08:07;;;;;;;7.40;3.47;;;16.30;51.80;;;;;;5067640;28;20486;-75
2022/04/20 10:10:34;;;;;;;7.53;3.80;;;16.60;52.10;;;;;;5066351;28;20484;-78
2022/04/20 10:13:03;;;;;;;4.87;4.37;;;16.70;52.10;;;;;;5069612;28;20585;-80
2022/04/20 10:18:18;;;;;;;4.20;3.27;;;16.80;50.40;;;;;;5066801;28;20518;-78
2022/04/20 10:20:49;;;;;;;10.93;4.97;;;16.80;52.50;;;;;;5063199;28;21122;-84
2022/04/20 10:23:20;;;;;;;5.10;3.40;;;16.90;51.70;;;;;;5063502;28;20488;-75
2022/04/20 10:25:50;;;;;;;4.30;3.00;;;17.00;52.40;;;;;;5065829;28;20559;-78
2022/04/20 10:28:24;;;;;;;3.70;3.33;;;17.00;51.90;;;;;;5054824;28;20593;-77
2022/04/20 10:31:02;;;;;;;4.50;3.70;;;17.10;51.50;;;;;;5065769;28;20486;-76
2022/04/20 10:33:31;;;;;;;4.63;3.93;;;17.20;52.10;;;;;;5066476;28;20481;-75
2022/04/20 10:36:00;;;;;;;5.27;3.33;;;17.20;51.80;;;;;;5053756;28;20959;-73
2022/04/20 10:38:31;;;;;;;18.67;3.43;;;17.20;50.20;;;;;;5052711;28;20554;-79
2022/04/20 10:41:02;;;;;;;4.50;3.43;;;17.10;49.60;;;;;;5045376;28;20482;-73
2022/04/20 10:43:29;;;;;;;7.17;4.03;;;17.20;50.70;;;;;;5054759;28;20547;-73
2022/04/20 10:46:11;;;;;;;6.10;3.40;;;17.50;52.50;;;;;;5066309;28;20473;-75
2022/04/20 10:49:02;;;;;;;4.13;3.20;;;17.40;48.80;;;;;;5053396;28;20565;-74
2022/04/20 10:51:41;;;;;;;4.30;3.90;;;17.40;51.10;;;;;;5041426;28;20485;-74
2022/04/20 10:54:27;;;;;;;3.57;2.93;;;17.60;52.20;;;;;;5055103;28;20998;-72
2022/04/20 10:57:13;;;;;;;4.33;3.10;;;17.50;50.00;;;;;;5063666;28;20998;-73
2022/04/20 10:59:41;;;;;;;4.30;3.27;;;17.50;50.60;;;;;;5066028;28;20470;-77
2022/04/20 11:02:12;;;;;;;10.70;4.30;;;17.70;50.50;;;;;;5068158;28;20518;-77
2022/04/20 11:04:42;;;;;;;5.17;3.50;;;17.90;51.20;;;;;;5063842;28;20500;-76
2022/04/20 11:07:26;;;;;;;4.50;2.97;;;18.00;52.30;;;;;;5065858;28;20489;-76
2022/04/20 11:10:05;;;;;;;3.80;2.97;;;18.30;51.10;;;;;;5064853;28;20478;-79
2022/04/20 11:18:42;;;;;;;4.20;3.40;;;18.10;49.90;;;;;;5053342;28;20469;-79
2022/04/20 11:21:19;;;;;;;3.43;2.93;;;18.00;50.80;;;;;;5063809;28;20474;-78
2022/04/20 11:23:58;;;;;;;6.70;3.40;;;18.00;50.20;;;;;;5069096;28;20473;-77
2022/04/20 11:26:29;;;;;;;3.83;3.47;;;18.10;51.30;;;;;;5068112;28;20569;-79
2022/04/20 11:28:59;;;;;;;4.70;3.40;;;18.20;50.80;;;;;;5069384;28;20509;-81
2022/04/20 11:31:25;;;;;;;12.03;3.83;;;18.30;51.70;;;;;;5061031;28;23315;-77
2022/04/20 11:33:53;;;;;;;5.63;2.97;;;18.30;49.80;;;;;;5067624;28;20478;-77
2022/04/20 11:36:21;;;;;;;5.00;2.93;;;18.50;50.30;;;;;;5067721;28;20843;-76
2022/04/20 11:38:48;;;;;;;5.77;3.17;;;18.10;46.60;;;;;;5066551;28;20478;-78
2022/04/20 11:41:17;;;;;;;4.73;3.33;;;18.10;48.70;;;;;;5065060;28;20478;-82
2022/04/20 11:43:45;;;;;;;5.40;3.70;;;18.00;50.40;;;;;;5063666;28;20536;-76
2022/04/20 11:46:14;;;;;;;3.97;3.03;;;17.90;49.20;;;;;;5065600;28;20515;-77
2022/04/20 11:48:53;;;;;;;4.33;3.50;;;17.80;47.20;;;;;;5066226;28;21028;-78
2022/04/20 11:51:23;;;;;;;3.90;3.10;;;18.20;52.20;;;;;;5063044;28;20487;-76
2022/04/20 11:53:49;;;;;;;5.27;3.50;;;18.40;50.50;;;;;;5061251;28;20776;-78
2022/04/20 11:56:16;;;;;;;3.30;3.00;;;18.60;48.90;;;;;;5069297;28;21020;-78
2022/04/20 11:58:50;;;;;;;4.30;3.50;;;18.50;49.70;;;;;;5064126;28;20474;-77
2022/04/20 12:01:18;;;;;;;3.60;3.10;;;18.70;50.90;;;;;;5062279;28;21048;-75
2022/04/20 12:03:49;;;;;;;3.10;2.80;;;18.80;50.00;;;;;;5066498;28;20521;-76
2022/04/20 12:06:16;;;;;;;8.70;3.43;;;18.40;46.20;;;;;;5065244;28;20474;-77
2022/04/20 12:08:47;;;;;;;3.90;3.60;;;18.20;46.50;;;;;;5063497;28;20887;-80
2022/04/20 12:11:15;;;;;;;2.80;2.20;;;17.90;49.00;;;;;;5064251;28;20478;-78
2022/04/20 12:13:42;;;;;;;4.17;3.17;;;17.80;49.10;;;;;;5061380;28;20636;-80
2022/04/20 12:16:12;;;;;;;5.67;3.47;;;18.10;49.10;;;;;;5069606;28;20478;-78
2022/04/20 12:18:43;;;;;;;4.80;2.90;;;18.20;49.60;;;;;;5064199;28;20885;-75
2022/04/20 12:21:40;;;;;;;4.27;2.20;;;18.50;50.90;;;;;;5052472;28;20466;-76
2022/04/20 12:24:08;;;;;;;3.30;3.00;;;18.70;49.00;;;;;;5070190;28;20925;-80
2022/04/20 12:26:35;;;;;;;7.73;2.87;;;18.90;49.80;;;;;;5070634;28;20596;-78
2022/04/20 12:29:05;;;;;;;5.17;3.83;;;18.90;49.20;;;;;;5068940;28;21056;-77
2022/04/20 12:31:34;;;;;;;3.30;2.63;;;19.10;49.50;;;;;;5067820;28;20492;-77
2022/04/20 12:34:03;;;;;;;3.50;3.20;;;18.90;45.70;;;;;;5060560;28;20481;-78
2022/04/20 12:36:32;;;;;;;3.37;3.07;;;18.90;47.50;;;;;;5072787;28;20680;-76
2022/04/20 12:39:00;;;;;;;6.90;3.63;;;19.10;49.30;;;;;;5069921;28;20506;-74
2022/04/20 12:41:45;;;;;;;6.63;3.47;;;19.10;48.80;;;;;;5068868;28;20478;-75
2022/04/20 12:44:51;;;;;;;4.30;3.50;;;18.70;44.80;;;;;;5070416;28;20554;-79
2022/04/20 12:47:34;;;;;;;4.40;3.50;;;18.70;47.00;;;;;;5060175;28;20570;-79
2022/04/20 12:50:19;;;;;;;3.33;3.03;;;18.60;45.20;;;;;;5066176;28;20516;-77
2022/04/20 12:52:53;;;;;;;5.20;2.90;;;18.90;50.00;;;;;;5055315;28;20477;-77
2022/04/20 12:55:21;;;;;;;6.13;3.30;;;18.80;48.20;;;;;;5070129;28;20555;-79
2022/04/20 13:03:36;;;;;;;4.13;3.30;;;18.60;49.00;;;;;;5044246;28;20485;-81
2022/04/20 13:06:06;;;;;;;3.30;3.00;;;18.80;47.80;;;;;;5066086;28;20474;-79
2022/04/20 13:08:33;;;;;;;10.83;3.60;;;18.70;46.00;;;;;;5064296;28;20478;-77
2022/04/20 13:11:01;;;;;;;4.47;3.10;;;18.80;48.00;;;;;;5066171;28;20567;-80
2022/04/20 13:13:28;;;;;;;3.63;3.13;;;18.70;45.90;;;;;;5068671;28;20508;-78
2022/04/20 13:15:55;;;;;;;3.17;2.87;;;18.90;47.30;;;;;;5068278;28;20485;-77
2022/04/20 13:18:23;;;;;;;6.87;2.30;;;18.90;46.90;;;;;;5066146;28;20477;-76
2022/04/20 13:20:51;;;;;;;3.60;2.20;;;18.60;46.00;;;;;;5064923;28;20809;-81
2022/04/20 13:23:20;;;;;;;3.80;2.53;;;18.50;45.40;;;;;;5069173;28;20593;-79
2022/04/20 13:28:33;;;;;;;3.27;2.97;;;18.70;46.20;;;;;;5065520;28;20523;-77
2022/04/20 13:30:59;;;;;;;4.83;3.13;;;18.70;44.90;;;;;;5052940;28;20489;-77
2022/04/20 13:33:26;;;;;;;7.00;3.00;;;19.10;48.00;;;;;;5060640;28;20488;-78
2022/04/20 13:35:55;;;;;;;8.57;3.27;;;19.10;47.00;;;;;;5064199;28;20757;-77
2022/04/20 13:38:23;;;;;;;12.63;3.40;;;19.50;47.10;;;;;;5062204;28;20557;-79
2022/04/20 13:40:51;;;;;;;5.70;2.83;;;19.60;46.40;;;;;;5062587;28;20509;-77
2022/04/20 13:43:17;;;;;;;3.13;2.30;;;19.50;48.30;;;;;;5054872;28;20875;-78
2022/04/20 13:45:47;;;;;;;3.50;3.20;;;19.40;45.00;;;;;;5069200;28;20475;-79